Time;durP1;ratioP1;P1;durP2;ratioP2;P2;SDS_P1;SDS_P2;PMS_P1;PMS_P2;Temp;Humidity;BMP_temperature;BMP_pressure;BME280_temperature;BME280_humidity;BME280_pressure;Samples;Min_cycle;Max_cycle;Signal;HPM_P1;HPM_P2
2023/10/25 00:01:04;;;;;;;74.90;55.10;;;;;;;19.92;nan;98894.66;5005330;28;20050;-65
2023/10/25 00:03:34;;;;;;;87.95;56.10;;;;;;;19.73;nan;98896.84;5023299;28;20100;-64
2023/10/25 00:06:04;;;;;;;83.20;56.25;;;;;;;19.59;nan;98895.53;5013872;28;20458;-64
2023/10/25 00:08:33;;;;;;;80.93;56.75;;;;;;;20.00;nan;98891.56;4987522;28;20049;-64
2023/10/25 00:11:05;;;;;;;81.28;57.47;;;;;;;19.97;nan;98900.09;5002673;28;20081;-65
2023/10/25 00:13:35;;;;;;;85.25;59.00;;;;;;;19.59;nan;98895.53;5004849;28;20061;-64
2023/10/25 00:16:05;;;;;;;84.57;58.65;;;;;;;19.96;nan;98903.88;5010203;28;20761;-64
2023/10/25 00:18:34;;;;;;;84.97;59.78;;;;;;;20.11;nan;98898.69;5011562;28;20061;-64
2023/10/25 00:21:03;;;;;;;81.63;59.65;;;;;;;20.19;nan;98906.31;5005303;28;20073;-65
2023/10/25 00:23:36;;;;;;;87.65;57.95;;;;;;;20.09;nan;98903.53;5005623;28;20393;-64
2023/10/25 00:26:05;;;;;;;86.70;58.22;;;;;;;20.26;nan;98915.03;5010646;28;20392;-65
2023/10/25 00:28:35;;;;;;;84.95;58.97;;;;;;;20.08;nan;98910.78;5019524;28;20682;-64
2023/10/25 00:31:08;;;;;;;73.28;54.92;;;;;;;20.22;nan;98913.91;5024186;28;20061;-65
2023/10/25 00:33:38;;;;;;;88.78;57.10;;;;;;;20.22;nan;98910.41;5007406;28;20057;-64
2023/10/25 00:36:07;;;;;;;82.32;57.53;;;;;;;20.13;nan;98916.22;5017865;28;20068;-65
2023/10/25 00:38:36;;;;;;;80.72;56.65;;;;;;;20.07;nan;98919.06;5016099;28;20049;-65
2023/10/25 00:41:06;;;;;;;81.57;58.92;;;;;;;19.85;nan;98926.28;5026725;28;20060;-64
2023/10/25 00:43:35;;;;;;;85.88;60.70;;;;;;;20.12;nan;98928.03;5008580;28;20046;-64
2023/10/25 00:46:11;;;;;;;88.05;61.33;;;;;;;20.21;nan;98927.59;5016371;28;20123;-64
2023/10/25 00:48:44;;;;;;;87.63;59.90;;;;;;;20.16;nan;98926.47;4997613;28;20057;-64
2023/10/25 00:51:15;;;;;;;88.50;59.35;;;;;;;19.79;nan;98932.63;5006403;28;20133;-64
2023/10/25 00:53:55;;;;;;;86.57;58.60;;;;;;;20.12;nan;98930.72;4990463;28;20119;-65
2023/10/25 00:56:27;;;;;;;82.28;60.75;;;;;;;20.03;nan;98932.22;5002218;28;20045;-65
2023/10/25 00:58:58;;;;;;;91.28;62.05;;;;;;;20.14;nan;98933.97;5013276;28;20488;-64
2023/10/25 01:01:29;;;;;;;81.40;59.03;;;;;;;20.06;nan;98936.25;5007422;28;20046;-65
2023/10/25 01:03:59;;;;;;;85.35;60.67;;;;;;;19.93;nan;98934.75;5014469;28;20121;-65
2023/10/25 01:06:28;;;;;;;78.50;58.30;;;;;;;19.83;nan;98941.84;5009429;28;20100;-64
2023/10/25 01:08:59;;;;;;;83.50;61.03;;;;;;;19.80;nan;98939.66;5019911;28;20103;-64
2023/10/25 01:11:28;;;;;;;84.35;61.05;;;;;;;19.90;nan;98945.19;5025434;28;20073;-64
2023/10/25 01:13:57;;;;;;;83.32;59.38;;;;;;;19.90;nan;98945.19;5007349;28;20053;-64
2023/10/25 01:16:27;;;;;;;85.22;61.35;;;;;;;19.94;nan;98957.88;4997121;28;20054;-64
2023/10/25 01:18:56;;;;;;;82.53;58.03;;;;;;;19.83;nan;98956.09;5019157;28;20049;-65
2023/10/25 01:21:26;;;;;;;81.05;58.97;;;;;;;19.85;nan;98963.91;5026124;28;20049;-64
2023/10/25 01:23:56;;;;;;;84.10;60.33;;;;;;;20.06;nan;98965.84;5006002;28;20699;-64
2023/10/25 01:26:25;;;;;;;86.53;59.63;;;;;;;19.73;nan;98959.47;5017769;28;20057;-64
2023/10/25 01:28:54;;;;;;;80.65;60.17;;;;;;;19.87;nan;98970.66;5018823;28;20055;-64
2023/10/25 01:31:24;;;;;;;89.28;61.42;;;;;;;19.91;nan;98965.63;5011632;28;20481;-64
2023/10/25 01:33:53;;;;;;;86.22;59.83;;;;;;;19.94;nan;98965.13;5009061;28;20054;-64
2023/10/25 01:36:22;;;;;;;87.43;62.40;;;;;;;19.78;nan;98976.72;5017838;28;20500;-64
2023/10/25 01:38:52;;;;;;;77.88;58.83;;;;;;;19.99;nan;98978.66;5014233;28;20152;-64
2023/10/25 01:41:23;;;;;;;83.20;58.75;;;;;;;19.89;nan;98978.50;5021068;28;20049;-64
2023/10/25 01:43:53;;;;;;;83.72;58.20;;;;;;;19.98;nan;98983.22;5005258;28;20061;-64
2023/10/25 01:46:22;;;;;;;82.47;60.35;;;;;;;20.00;nan;98988.34;5008800;28;20107;-64
2023/10/25 01:48:52;;;;;;;81.88;57.47;;;;;;;20.18;nan;98988.06;5016861;28;20046;-63
2023/10/25 01:51:22;;;;;;;80.00;58.63;;;;;;;20.18;nan;98990.75;4991015;28;20485;-64
2023/10/25 01:53:51;;;;;;;80.80;57.95;;;;;;;20.11;nan;98999.00;4986028;28;20390;-64
2023/10/25 01:56:20;;;;;;;82.07;59.33;;;;;;;20.15;nan;98997.44;5015972;28;20093;-64
2023/10/25 01:58:50;;;;;;;74.03;58.33;;;;;;;20.48;nan;99003.88;4999734;28;20148;-64
2023/10/25 02:01:19;;;;;;;84.10;59.28;;;;;;;20.51;nan;99009.56;5016628;28;20068;-63
2023/10/25 02:03:48;;;;;;;82.85;58.58;;;;;;;20.58;nan;99009.34;5004891;28;20077;-64
2023/10/25 02:06:18;;;;;;;75.72;59.67;;;;;;;20.46;nan;99006.78;5002284;28;20059;-64
2023/10/25 02:08:47;;;;;;;88.07;60.90;;;;;;;20.69;nan;99011.13;5020072;28;20053;-64
2023/10/25 02:11:19;;;;;;;83.78;59.45;;;;;;;20.93;nan;99022.47;5001367;28;20147;-63
2023/10/25 02:13:48;;;;;;;86.38;62.85;;;;;;;20.92;nan;99018.13;5007570;28;20640;-64
2023/10/25 02:16:21;;;;;;;86.80;63.72;;;;;;;20.65;nan;99026.16;5006536;28;20052;-64
2023/10/25 02:18:50;;;;;;;83.73;64.73;;;;;;;20.79;nan;99030.09;5010298;28;20116;-65
2023/10/25 02:21:20;;;;;;;92.20;64.55;;;;;;;20.98;nan;99034.09;5016713;28;20290;-65
2023/10/25 02:23:49;;;;;;;99.43;67.95;;;;;;;21.03;nan;99036.03;5006418;28;20056;-64
2023/10/25 02:26:18;;;;;;;97.05;67.57;;;;;;;21.09;nan;99043.13;5021619;28;20140;-65
2023/10/25 02:28:48;;;;;;;88.53;68.32;;;;;;;21.34;nan;99054.19;5005125;28;20046;-64
2023/10/25 02:31:17;;;;;;;90.43;68.45;;;;;;;21.51;nan;99057.59;5005084;28;20452;-65
2023/10/25 02:33:46;;;;;;;93.38;71.07;;;;;;;21.54;nan;99064.38;5006768;28;20041;-64
2023/10/25 02:36:16;;;;;;;89.35;71.32;;;;;;;21.62;nan;99057.72;5009108;28;20053;-64
2023/10/25 02:38:48;;;;;;;99.90;72.38;;;;;;;21.94;nan;99066.66;5010772;28;20125;-64
2023/10/25 02:41:18;;;;;;;100.75;74.13;;;;;;;22.01;nan;99066.44;4984258;28;20054;-65
2023/10/25 02:43:47;;;;;;;102.60;73.85;;;;;;;22.15;nan;99073.03;5021861;28;20065;-64
2023/10/25 02:46:16;;;;;;;110.82;80.00;;;;;;;22.22;nan;99076.31;5006685;28;20160;-64
2023/10/25 02:48:46;;;;;;;108.85;78.75;;;;;;;22.28;nan;99084.19;5010917;28;20136;-64
2023/10/25 02:51:15;;;;;;;110.78;78.00;;;;;;;22.39;nan;99080.47;5005564;28;20462;-64
2023/10/25 02:53:45;;;;;;;119.57;79.43;;;;;;;22.39;nan;99085.09;5023666;28;20056;-64
2023/10/25 02:56:14;;;;;;;107.15;77.53;;;;;;;22.51;nan;99093.00;4990697;28;20049;-64
2023/10/25 02:58:44;;;;;;;114.13;77.22;;;;;;;22.71;nan;99093.94;5008796;28;20060;-65
2023/10/25 03:01:21;;;;;;;117.63;82.15;;;;;;;22.98;nan;99099.22;5004388;28;20108;-64
2023/10/25 03:03:52;;;;;;;123.68;83.53;;;;;;;23.22;nan;99096.91;5010384;28;20453;-62
2023/10/25 03:06:21;;;;;;;118.85;84.63;;;;;;;23.24;nan;99114.47;4982336;28;20072;-65
2023/10/25 03:08:52;;;;;;;117.28;86.32;;;;;;;23.56;nan;99111.63;4989100;28;20460;-63
2023/10/25 03:11:21;;;;;;;127.38;84.70;;;;;;;23.52;nan;99117.84;5000986;28;20058;-62
2023/10/25 03:13:50;;;;;;;113.43;83.82;;;;;;;23.53;nan;99117.56;5019309;28;20053;-65
2023/10/25 03:16:20;;;;;;;116.85;80.53;;;;;;;23.67;nan;99126.00;5007660;28;20366;-65
2023/10/25 03:18:49;;;;;;;121.72;80.63;;;;;;;23.83;nan;99126.81;4991688;28;20103;-65
2023/10/25 03:21:28;;;;;;;114.07;80.67;;;;;;;23.84;nan;99134.69;5006503;28;20474;-65
2023/10/25 03:23:57;;;;;;;117.88;75.82;;;;;;;24.00;nan;99127.38;5005180;28;20073;-65
2023/10/25 03:26:27;;;;;;;110.20;69.78;;;;;;;23.98;nan;99129.56;5021036;28;20049;-64
2023/10/25 03:28:59;;;;;;;93.60;64.70;;;;;;;23.90;nan;99127.41;5019367;28;20111;-65
2023/10/25 03:31:29;;;;;;;94.82;63.03;;;;;;;23.83;nan;99135.75;4994031;28;20815;-65
2023/10/25 03:33:58;;;;;;;102.78;64.57;;;;;;;24.09;nan;99132.00;5005183;28;20066;-63
2023/10/25 03:36:27;;;;;;;96.88;65.65;;;;;;;24.38;nan;99136.91;5010918;28;20046;-63
2023/10/25 03:38:57;;;;;;;97.68;65.90;;;;;;;24.49;nan;99136.63;5006716;28;20096;-65
2023/10/25 03:41:26;;;;;;;110.78;71.85;;;;;;;24.37;nan;99133.41;5003488;28;20038;-65
2023/10/25 03:43:55;;;;;;;113.45;75.05;;;;;;;24.20;nan;99138.28;5009425;28;20137;-64
2023/10/25 03:46:25;;;;;;;101.05;69.97;;;;;;;24.25;nan;99137.47;5010466;28;20058;-65
2023/10/25 03:48:56;;;;;;;99.40;67.03;;;;;;;24.77;nan;99150.69;5004971;28;20153;-65
2023/10/25 03:51:26;;;;;;;104.70;68.43;;;;;;;24.93;nan;99152.31;4984762;28;20053;-63
2023/10/25 03:53:55;;;;;;;100.75;68.47;;;;;;;25.19;nan;99150.31;4990045;28;20061;-63
2023/10/25 03:56:24;;;;;;;100.57;69.45;;;;;;;25.39;nan;99155.69;5013404;28;20693;-64
2023/10/25 03:58:54;;;;;;;98.80;66.10;;;;;;;25.48;nan;99164.88;5006031;28;20045;-63
2023/10/25 04:01:23;;;;;;;99.75;67.20;;;;;;;25.84;nan;99163.63;5007855;28;20347;-63
2023/10/25 04:03:52;;;;;;;92.05;61.70;;;;;;;26.15;nan;99166.13;5026626;28;20064;-64
2023/10/25 04:06:22;;;;;;;88.40;59.08;;;;;;;26.37;nan;99171.97;5010348;28;20152;-64
2023/10/25 04:08:51;;;;;;;78.72;56.97;;;;;;;26.36;nan;99171.16;5007785;28;20057;-64
2023/10/25 04:11:21;;;;;;;102.65;62.17;;;;;;;26.51;nan;99167.47;5009797;28;20690;-64
2023/10/25 04:13:53;;;;;;;79.97;54.42;;;;;;;26.47;nan;99171.88;5008242;28;20701;-64
2023/10/25 04:16:22;;;;;;;89.47;57.03;;;;;;;26.75;nan;99165.66;5008585;28;20132;-65
2023/10/25 04:18:51;;;;;;;71.70;50.85;;;;;;;26.77;nan;99177.06;5008100;28;20298;-65
2023/10/25 04:21:20;;;;;;;70.57;51.72;;;;;;;26.94;nan;99175.84;5026786;28;20822;-65
2023/10/25 04:23:50;;;;;;;59.97;42.28;;;;;;;27.29;nan;99180.06;5010520;28;20053;-65
2023/10/25 04:26:19;;;;;;;65.38;41.03;;;;;;;27.38;nan;99181.03;5022331;28;20077;-65
2023/10/25 04:28:48;;;;;;;59.10;37.63;;;;;;;27.40;nan;99174.19;5014885;28;20050;-65
2023/10/25 04:31:20;;;;;;;54.40;36.80;;;;;;;27.57;nan;99182.72;5010541;28;20134;-65
2023/10/25 04:33:50;;;;;;;52.63;34.17;;;;;;;27.91;nan;99181.75;5007866;28;20768;-66
2023/10/25 04:36:19;;;;;;;49.33;32.80;;;;;;;28.30;nan;99182.25;5010696;28;20057;-65
2023/10/25 04:38:51;;;;;;;47.42;32.15;;;;;;;28.96;nan;99186.63;5000424;28;20045;-66
2023/10/25 04:41:21;;;;;;;52.58;32.38;;;;;;;28.79;nan;99183.66;5006067;28;20189;-66
2023/10/25 04:43:53;;;;;;;85.35;30.05;;;;;;;29.19;nan;99188.34;5021326;28;20045;-66
2023/10/25 04:46:23;;;;;;;57.45;26.17;;;;;;;29.32;nan;99190.31;5011354;28;20159;-66
2023/10/25 04:48:52;;;;;;;45.05;25.40;;;;;;;29.05;nan;99184.81;5006864;28;20137;-66
2023/10/25 04:51:21;;;;;;;38.35;23.38;;;;;;;29.32;nan;99190.31;5007000;28;20080;-66
2023/10/25 04:53:51;;;;;;;31.23;21.52;;;;;;;29.11;nan;99189.06;5007195;28;20062;-67
2023/10/25 04:56:23;;;;;;;35.38;21.80;;;;;;;29.38;nan;99191.84;5007730;28;20124;-66
2023/10/25 04:58:56;;;;;;;29.67;19.52;;;;;;;29.30;nan;99194.44;5006126;28;20045;-67
2023/10/25 05:01:34;;;;;;;32.63;20.30;;;;;;;30.16;nan;99200.81;5010096;28;20140;-67
2023/10/25 05:04:04;;;;;;;28.58;19.15;;;;;;;30.85;nan;99202.13;5004060;28;20438;-67
2023/10/25 05:06:37;;;;;;;36.65;19.65;;;;;;;29.55;nan;99193.13;5008508;28;20065;-66
2023/10/25 05:09:07;;;;;;;;;;;;;;;29.53;nan;99192.63;5007050;28;20066;-66
2023/10/25 05:11:38;;;;;;;31.63;18.88;;;;;;;29.62;nan;99191.59;5009484;28;19925;-67
2023/10/25 05:14:08;;;;;;;29.67;17.40;;;;;;;30.82;nan;99199.22;5006165;28;20046;-65
2023/10/25 05:16:37;;;;;;;24.73;17.17;;;;;;;30.58;nan;99191.38;5011482;28;20133;-66
2023/10/25 05:19:07;;;;;;;29.52;16.65;;;;;;;29.28;nan;99186.53;5006436;28;20663;-66
2023/10/25 05:21:42;;;;;;;27.73;16.50;;;;;;;30.28;nan;99193.69;5025418;28;20084;-65
2023/10/25 05:24:21;;;;;;;23.60;14.52;;;;;;;29.70;nan;99179.97;5024716;28;20084;-66
2023/10/25 05:26:51;;;;;;;20.25;14.35;;;;;;;29.70;nan;99184.59;5006315;28;20426;-66
2023/10/25 05:29:21;;;;;;;23.13;15.38;;;;;;;29.47;nan;99183.75;5006995;28;20137;-65
2023/10/25 05:31:52;;;;;;;25.92;15.60;;;;;;;29.52;nan;99180.09;5007994;28;20053;-66
2023/10/25 05:34:24;;;;;;;23.05;13.98;;;;;;;29.87;nan;99182.06;5005906;28;20049;-72
2023/10/25 05:36:54;;;;;;;20.27;13.30;;;;;;;30.54;nan;99188.44;5003699;28;20050;-66
2023/10/25 05:39:25;;;;;;;24.45;15.02;;;;;;;30.49;nan;99179.56;5009820;28;20497;-66
2023/10/25 05:41:59;;;;;;;25.20;15.38;;;;;;;30.37;nan;99179.28;4989171;28;20057;-65
2023/10/25 05:44:32;;;;;;;21.60;15.48;;;;;;;30.30;nan;99180.53;5002675;28;20061;-66
2023/10/25 05:47:01;;;;;;;21.30;15.15;;;;;;;30.65;nan;99178.06;5012596;28;20606;-67
2023/10/25 05:49:31;;;;;;;23.17;14.43;;;;;;;30.13;nan;99174.94;5008241;28;20053;-66
2023/10/25 05:52:01;;;;;;;19.98;14.23;;;;;;;30.80;nan;99174.94;5009533;28;20813;-65
2023/10/25 05:54:31;;;;;;;19.83;13.10;;;;;;;30.22;nan;99172.28;5014806;28;20049;-64
2023/10/25 05:57:00;;;;;;;30.85;13.68;;;;;;;29.91;nan;99166.72;5008121;28;20056;-66
2023/10/25 05:59:30;;;;;;;18.58;12.68;;;;;;;29.88;nan;99168.13;5001918;28;20361;-68
2023/10/25 06:02:11;;;;;;;19.98;9.85;;;;;;;29.98;nan;99167.09;5010135;28;20065;-69
2023/10/25 06:04:42;;;;;;;16.45;10.48;;;;;;;29.96;nan;99163.06;5005858;28;20064;-70
2023/10/25 06:07:13;;;;;;;17.80;10.07;;;;;;;29.33;nan;99155.66;5000792;28;20364;-68
2023/10/25 06:09:43;;;;;;;17.95;11.98;;;;;;;28.98;nan;99149.75;5005607;28;20346;-69
2023/10/25 06:12:22;;;;;;;15.88;11.65;;;;;;;29.60;nan;99147.44;5004829;28;20092;-70
2023/10/25 06:14:51;;;;;;;25.17;12.13;;;;;;;29.89;nan;99141.63;5009596;28;20041;-69
2023/10/25 06:17:23;;;;;;;20.20;11.68;;;;;;;29.69;nan;99142.88;5008296;28;20050;-67
2023/10/25 06:19:53;;;;;;;23.23;12.10;;;;;;;29.28;nan;99140.16;5011933;28;20117;-71
2023/10/25 06:22:25;;;;;;;16.42;11.73;;;;;;;29.11;nan;99139.16;5009732;28;20049;-68
2023/10/25 06:24:55;;;;;;;21.48;11.90;;;;;;;28.78;nan;99143.84;5009470;28;20532;-69
2023/10/25 06:27:24;;;;;;;17.40;11.23;;;;;;;29.15;nan;99121.06;4994492;28;20046;-68
2023/10/25 06:29:54;;;;;;;16.80;10.38;;;;;;;29.17;nan;99122.34;5003579;28;20046;-69
2023/10/25 06:32:23;;;;;;;13.52;10.70;;;;;;;29.33;nan;99120.97;5012431;28;20054;-70
2023/10/25 06:34:53;;;;;;;16.38;11.38;;;;;;;29.08;nan;99118.72;5001121;28;20193;-67
2023/10/25 06:37:25;;;;;;;17.15;12.02;;;;;;;28.83;nan;99116.50;4999576;28;20355;-71
2023/10/25 06:39:57;;;;;;;16.15;11.10;;;;;;;29.41;nan;99111.25;5005891;28;20140;-68
2023/10/25 06:42:29;;;;;;;15.13;11.00;;;;;;;29.10;nan;99107.53;5010300;28;20128;-70
2023/10/25 06:44:59;;;;;;;14.75;10.45;;;;;;;29.03;nan;99102.50;5016484;28;20081;-69
2023/10/25 06:47:29;;;;;;;15.82;10.98;;;;;;;29.22;nan;99103.16;5002100;28;20045;-69
2023/10/25 06:49:58;;;;;;;17.80;10.82;;;;;;;29.28;nan;99104.69;5005665;28;20481;-68
2023/10/25 06:52:28;;;;;;;15.35;10.95;;;;;;;29.30;nan;99097.00;5006649;28;20049;-67
2023/10/25 06:54:58;;;;;;;14.65;9.82;;;;;;;29.40;nan;99096.81;5000932;28;20495;-67
2023/10/25 06:57:31;;;;;;;11.95;9.80;;;;;;;29.41;nan;99092.97;5001874;28;20052;-66
2023/10/25 07:00:02;;;;;;;18.83;8.85;;;;;;;29.38;nan;99087.31;5001870;28;20049;-67
2023/10/25 07:02:42;;;;;;;13.90;10.18;;;;;;;29.58;nan;99086.84;4982010;28;20069;-67
2023/10/25 07:05:13;;;;;;;21.88;10.27;;;;;;;29.45;nan;99087.69;5002829;28;20541;-66
2023/10/25 07:07:43;;;;;;;17.20;9.25;;;;;;;29.38;nan;99082.66;4998011;28;20069;-67
2023/10/25 07:10:13;;;;;;;19.70;9.50;;;;;;;29.47;nan;99081.94;4998815;28;20427;-68
2023/10/25 07:12:43;;;;;;;12.40;9.52;;;;;;;29.44;nan;99077.88;4998998;28;20046;-67
2023/10/25 07:15:13;;;;;;;12.48;9.35;;;;;;;29.28;nan;99071.13;5002500;28;20057;-68
2023/10/25 07:17:45;;;;;;;20.35;10.50;;;;;;;29.39;nan;99067.88;5001939;28;20049;-69
2023/10/25 07:20:15;;;;;;;13.98;9.98;;;;;;;29.39;nan;99050.69;5005815;28;20060;-68
2023/10/25 07:22:44;;;;;;;18.27;10.85;;;;;;;29.32;nan;99051.13;5003132;28;20065;-70
2023/10/25 07:25:13;;;;;;;20.52;10.27;;;;;;;29.29;nan;99056.38;4999064;28;20140;-68
2023/10/25 07:27:43;;;;;;;16.15;10.75;;;;;;;29.46;nan;99048.38;5001311;28;20050;-67
2023/10/25 07:30:12;;;;;;;15.77;10.07;;;;;;;29.45;nan;99042.09;5008988;28;20777;-68
2023/10/25 07:32:41;;;;;;;15.23;10.45;;;;;;;29.33;nan;99043.75;5005555;28;20544;-67
2023/10/25 07:35:11;;;;;;;14.15;10.27;;;;;;;29.26;nan;99048.78;5004174;28;20041;-67
2023/10/25 07:37:40;;;;;;;17.90;10.02;;;;;;;29.20;nan;99037.19;5002880;28;20062;-67
2023/10/25 07:40:13;;;;;;;14.85;10.65;;;;;;;29.32;nan;99029.31;5010850;28;20082;-67
2023/10/25 07:42:42;;;;;;;;;;;;;;;29.41;nan;99035.66;5023867;28;20052;-67
2023/10/25 07:45:14;;;;;;;18.23;9.82;;;;;;;29.38;nan;99019.91;5007760;28;19987;-68
2023/10/25 07:47:44;;;;;;;17.33;9.20;;;;;;;29.32;nan;99023.84;5004630;28;20112;-68
2023/10/25 07:50:18;;;;;;;20.83;9.77;;;;;;;29.36;nan;99016.66;5005467;28;20485;-66
2023/10/25 07:52:48;;;;;;;15.85;9.10;;;;;;;29.19;nan;99019.19;5005913;28;20129;-67
2023/10/25 07:55:18;;;;;;;23.75;10.15;;;;;;;29.35;nan;99023.22;5002901;28;20041;-68
2023/10/25 07:58:07;;;;;;;10.27;7.43;;;;;;;29.35;nan;99015.03;5016331;28;20049;-67
2023/10/25 08:00:51;;;;;;;12.25;8.57;;;;;;;29.33;nan;99003.63;5012760;28;20045;-66
2023/10/25 08:03:24;;;;;;;14.07;8.70;;;;;;;29.41;nan;99002.09;5015424;28;20045;-67
2023/10/25 08:05:54;;;;;;;13.40;9.65;;;;;;;29.39;nan;99007.03;5011640;28;20491;-67
2023/10/25 08:08:23;;;;;;;26.15;10.57;;;;;;;29.33;nan;99000.09;5007661;28;20053;-67
2023/10/25 08:11:02;;;;;;;13.75;8.00;;;;;;;29.35;nan;98995.13;5015777;28;20136;-66
2023/10/25 08:13:34;;;;;;;13.18;8.35;;;;;;;29.25;nan;98987.97;5016542;28;20046;-67
2023/10/25 08:16:04;;;;;;;12.55;8.32;;;;;;;29.19;nan;98980.19;5012889;28;20079;-67
2023/10/25 08:18:37;;;;;;;14.00;8.68;;;;;;;29.27;nan;98977.53;5016558;28;20617;-66
2023/10/25 08:21:13;;;;;;;15.82;8.18;;;;;;;29.22;nan;98983.09;5018472;28;20057;-67
2023/10/25 08:23:46;;;;;;;15.82;8.93;;;;;;;29.08;nan;98978.81;5016759;28;20042;-67
2023/10/25 08:26:16;;;;;;;14.70;8.23;;;;;;;29.09;nan;98970.31;5006903;28;20042;-67
2023/10/25 08:28:45;;;;;;;12.93;8.27;;;;;;;29.10;nan;98969.22;5023415;28;20854;-67
2023/10/25 08:31:17;;;;;;;14.98;8.88;;;;;;;29.23;nan;98962.09;5010098;28;20655;-67
2023/10/25 08:33:46;;;;;;;15.63;7.20;;;;;;;29.19;nan;98964.63;5008808;28;20046;-67
2023/10/25 08:36:16;;;;;;;14.32;8.15;;;;;;;29.14;nan;98959.28;5007331;28;20056;-67
2023/10/25 08:38:48;;;;;;;16.00;7.85;;;;;;;29.12;nan;98955.28;5004818;28;20060;-68
2023/10/25 08:41:20;;;;;;;14.98;9.52;;;;;;;29.17;nan;98947.75;5020622;28;20750;-67
2023/10/25 08:43:49;;;;;;;16.85;8.40;;;;;;;29.05;nan;98947.50;5021814;28;20049;-67
2023/10/25 08:46:23;;;;;;;15.82;8.90;;;;;;;29.03;nan;98949.75;5020068;28;20042;-67
2023/10/25 08:48:55;;;;;;;18.45;8.95;;;;;;;29.06;nan;98953.75;5006908;28;20525;-67
2023/10/25 08:51:25;;;;;;;20.30;9.02;;;;;;;29.09;nan;98947.69;5007535;28;20107;-67
2023/10/25 08:53:59;;;;;;;14.80;8.63;;;;;;;29.11;nan;98946.28;5007111;28;20198;-68
2023/10/25 08:56:28;;;;;;;16.08;8.32;;;;;;;29.13;nan;98937.75;5009581;28;20145;-67
2023/10/25 08:59:01;;;;;;;17.17;8.32;;;;;;;29.10;nan;98941.13;5005018;28;20159;-67
2023/10/25 09:01:30;;;;;;;;;;;;;;;29.07;nan;98936.28;5010108;28;20157;-67
2023/10/25 09:04:08;;;;;;;13.23;7.30;;;;;;;29.09;nan;98936.78;5008816;28;19931;-67
2023/10/25 09:06:38;;;;;;;11.13;7.65;;;;;;;29.09;nan;98937.56;5005840;28;20037;-65
2023/10/25 09:09:10;;;;;;;15.60;7.82;;;;;;;29.00;nan;98936.69;5004749;28;20050;-67
2023/10/25 09:11:44;;;;;;;14.25;8.65;;;;;;;28.99;nan;98930.44;5010556;28;20054;-68
2023/10/25 09:14:13;;;;;;;12.57;7.75;;;;;;;28.98;nan;98925.31;5006040;28;20057;-67
2023/10/25 09:16:46;;;;;;;14.80;7.85;;;;;;;28.98;nan;98925.31;5007003;28;20045;-67
2023/10/25 09:19:19;;;;;;;14.27;9.02;;;;;;;29.00;nan;98926.59;5009246;28;20418;-67
2023/10/25 09:21:48;;;;;;;16.13;10.80;;;;;;;28.98;nan;98922.56;5007811;28;20052;-67
2023/10/25 09:24:18;;;;;;;20.33;10.93;;;;;;;28.97;nan;98916.31;5002357;28;20061;-66
2023/10/25 09:26:48;;;;;;;16.65;11.32;;;;;;;28.94;nan;98919.63;5010676;28;20157;-67
2023/10/25 09:29:25;;;;;;;14.57;9.93;;;;;;;28.94;nan;98918.84;5006244;28;20066;-68
2023/10/25 09:32:08;;;;;;;21.40;10.52;;;;;;;28.92;nan;98910.16;5005668;28;20050;-68
2023/10/25 09:34:38;;;;;;;19.80;10.20;;;;;;;28.96;nan;98909.22;5008410;28;20077;-67
2023/10/25 09:37:07;;;;;;;16.55;10.48;;;;;;;28.92;nan;98908.25;5007099;28;20066;-68
2023/10/25 09:39:37;;;;;;;19.92;11.65;;;;;;;28.92;nan;98905.50;5007146;28;20160;-67
2023/10/25 09:42:13;;;;;;;20.83;13.48;;;;;;;28.89;nan;98902.59;5005215;28;20050;-67
2023/10/25 09:44:45;;;;;;;27.83;13.18;;;;;;;28.86;nan;98900.47;5026333;28;20072;-68
2023/10/25 09:47:17;;;;;;;20.27;12.90;;;;;;;28.80;nan;98899.78;5022948;28;20056;-67
2023/10/25 09:49:56;;;;;;;21.80;13.27;;;;;;;28.77;nan;98894.13;5026581;28;20049;-67
2023/10/25 09:52:29;;;;;;;22.13;14.70;;;;;;;28.74;nan;98890.09;5007279;28;20347;-67
2023/10/25 09:55:03;;;;;;;23.27;14.30;;;;;;;28.70;nan;98889.09;5016712;28;20046;-67
2023/10/25 09:57:34;;;;;;;25.90;15.65;;;;;;;28.66;nan;98892.72;5016460;28;20130;-68
2023/10/25 10:00:11;;;;;;;24.92;16.67;;;;;;;28.57;nan;98889.91;5011716;28;20130;-67
2023/10/25 10:03:12;;;;;;;30.42;18.83;;;;;;;28.50;nan;98887.59;5011126;28;20045;-67
2023/10/25 10:05:51;;;;;;;27.92;16.90;;;;;;;28.53;nan;98881.53;5024469;28;20116;-69
2023/10/25 10:08:30;;;;;;;25.77;17.95;;;;;;;28.52;nan;98879.09;5009088;28;20046;-66
2023/10/25 10:11:15;;;;;;;27.10;16.13;;;;;;;28.35;nan;98876.22;5001985;28;20046;-67
2023/10/25 10:13:44;;;;;;;22.38;13.65;;;;;;;28.27;nan;98877.75;5014554;28;20552;-66
2023/10/25 10:16:15;;;;;;;26.88;13.80;;;;;;;28.31;nan;98878.75;5005292;28;20081;-67
2023/10/25 10:18:45;;;;;;;23.25;13.85;;;;;;;28.28;nan;98876.59;5007655;28;20046;-66
2023/10/25 10:21:15;;;;;;;21.02;13.40;;;;;;;28.30;nan;98877.13;5013252;28;20714;-67
2023/10/25 10:23:54;;;;;;;23.40;13.45;;;;;;;28.31;nan;98876.03;5012899;28;20069;-67
2023/10/25 10:26:42;;;;;;;25.27;12.07;;;;;;;28.22;nan;98872.38;5004978;28;20141;-67
2023/10/25 10:29:33;;;;;;;16.77;9.48;;;;;;;28.19;nan;98875.72;5019500;28;20095;-67
2023/10/25 10:32:07;;;;;;;17.75;9.73;;;;;;;28.12;nan;98864.41;5018705;28;20049;-67
2023/10/25 10:34:43;;;;;;;17.13;9.13;;;;;;;28.12;nan;98875.31;5014879;28;20049;-66
2023/10/25 10:37:16;;;;;;;19.65;9.40;;;;;;;28.08;nan;98868.81;5024483;28;20046;-67
2023/10/25 10:40:03;;;;;;;16.27;9.63;;;;;;;28.09;nan;98867.72;5006216;28;20045;-66
2023/10/25 10:42:33;;;;;;;21.80;9.55;;;;;;;27.99;nan;98867.91;5006557;28;20138;-67
2023/10/25 10:45:13;;;;;;;16.27;8.73;;;;;;;27.91;nan;98865.91;5019837;28;20425;-67
2023/10/25 10:48:22;;;;;;;14.65;8.95;;;;;;;27.89;nan;98865.38;5005652;28;20819;-67
2023/10/25 10:50:52;;;;;;;16.60;9.82;;;;;;;27.81;nan;98866.06;5012915;28;20045;-66
2023/10/25 10:53:21;;;;;;;20.10;9.10;;;;;;;27.74;nan;98860.25;5001112;28;21938;-67
2023/10/25 10:55:50;;;;;;;17.90;10.02;;;;;;;27.68;nan;98851.34;5021954;28;20045;-67
2023/10/25 10:58:25;;;;;;;17.13;9.35;;;;;;;27.61;nan;98853.66;5011155;28;20104;-67
2023/10/25 11:00:57;;;;;;;20.08;9.18;;;;;;;27.64;nan;98859.31;5023888;28;20485;-67
2023/10/25 11:03:28;;;;;;;15.27;8.52;;;;;;;27.68;nan;98851.34;5016692;28;20097;-67
2023/10/25 11:05:58;;;;;;;17.08;9.35;;;;;;;27.61;nan;98843.59;5005040;28;20542;-67
2023/10/25 11:08:28;;;;;;;16.70;9.38;;;;;;;27.60;nan;98854.78;5007727;28;20046;-66
2023/10/25 11:11:00;;;;;;;25.67;9.43;;;;;;;27.49;nan;98845.97;5014184;28;20060;-68
2023/10/25 11:13:30;;;;;;;17.17;8.80;;;;;;;27.50;nan;98846.78;5016478;28;20050;-66
2023/10/25 11:16:06;;;;;;;21.27;9.68;;;;;;;27.40;nan;98847.72;5004559;28;20067;-67
2023/10/25 11:18:36;;;;;;;15.43;9.30;;;;;;;27.29;nan;98840.88;5002115;28;20061;-67
2023/10/25 11:21:06;;;;;;;21.73;9.25;;;;;;;27.15;nan;98838.09;5014769;28;20091;-67
2023/10/25 11:23:38;;;;;;;17.58;9.68;;;;;;;27.19;nan;98847.28;5015851;28;20049;-67
2023/10/25 11:26:08;;;;;;;12.13;9.32;;;;;;;27.17;nan;98840.53;5004537;28;20050;-68
2023/10/25 11:28:41;;;;;;;17.35;9.85;;;;;;;27.07;nan;98838.78;5009869;28;20107;-66
2023/10/25 11:31:14;;;;;;;18.55;10.05;;;;;;;26.96;nan;98833.78;5006947;28;20549;-66
2023/10/25 11:33:45;;;;;;;35.03;11.55;;;;;;;26.87;nan;98832.84;5016121;28;20049;-66
2023/10/25 11:36:15;;;;;;;33.67;11.40;;;;;;;26.77;nan;98834.59;5023949;28;20136;-66
2023/10/25 11:38:44;;;;;;;30.52;11.35;;;;;;;26.66;nan;98827.69;5018137;28;20069;-65
2023/10/25 11:41:14;;;;;;;30.73;10.90;;;;;;;26.57;nan;98828.63;5007778;28;20053;-68
2023/10/25 11:43:46;;;;;;;34.87;11.83;;;;;;;26.46;nan;98835.31;5013983;28;20053;-68
2023/10/25 11:46:16;;;;;;;26.17;10.13;;;;;;;26.38;nan;98827.84;5000964;28;20057;-67
2023/10/25 11:48:47;;;;;;;31.20;12.40;;;;;;;26.25;nan;98830.16;5011554;28;20061;-66
2023/10/25 11:51:19;;;;;;;26.88;12.73;;;;;;;26.26;nan;98828.25;5013422;28;20061;-68
2023/10/25 11:53:48;;;;;;;31.80;13.55;;;;;;;26.16;nan;98825.63;5005052;28;20049;-69
2023/10/25 11:56:21;;;;;;;36.13;16.45;;;;;;;26.13;nan;98835.16;5002282;28;20469;-68